sensor_id;sensor_type;location;lat;lon;timestamp;temperature;humidity
46898;DHT22;32646;50.958;6.258;2022-08-03T00:01:48;19.20;99.90
46898;DHT22;32646;50.958;6.258;2022-08-03T00:04:15;19.20;99.90
46898;DHT22;32646;50.958;6.258;2022-08-03T00:06:42;19.10;99.90
46898;DHT22;32646;50.958;6.258;2022-08-03T00:09:09;19.10;99.90
46898;DHT22;32646;50.958;6.258;2022-08-03T00:11:36;19.10;99.90
46898;DHT22;32646;50.958;6.258;2022-08-03T00:14:04;19.00;99.90
46898;DHT22;32646;50.958;6.258;2022-08-03T00:16:31;19.00;99.90
46898;DHT22;32646;50.958;6.258;2022-08-03T00:18:58;18.90;99.90
46898;DHT22;32646;50.958;6.258;2022-08-03T00:21:28;18.80;99.90
46898;DHT22;32646;50.958;6.258;2022-08-03T00:23:58;18.70;99.90
46898;DHT22;32646;50.958;6.258;2022-08-03T00:26:24;18.70;99.90
46898;DHT22;32646;50.958;6.258;2022-08-03T00:28:51;18.70;99.90
46898;DHT22;32646;50.958;6.258;2022-08-03T00:31:17;18.70;99.90
46898;DHT22;32646;50.958;6.258;2022-08-03T00:34:04;18.60;99.90
46898;DHT22;32646;50.958;6.258;2022-08-03T00:36:32;18.60;99.90
46898;DHT22;32646;50.958;6.258;2022-08-03T00:38:58;18.60;99.90
46898;DHT22;32646;50.958;6.258;2022-08-03T00:41:25;18.70;99.90
46898;DHT22;32646;50.958;6.258;2022-08-03T00:43:52;18.60;99.90
46898;DHT22;32646;50.958;6.258;2022-08-03T00:46:18;18.60;99.90
46898;DHT22;32646;50.958;6.258;2022-08-03T00:48:51;18.60;99.90
46898;DHT22;32646;50.958;6.258;2022-08-03T00:51:21;18.50;99.90
46898;DHT22;32646;50.958;6.258;2022-08-03T00:53:48;18.40;99.90
46898;DHT22;32646;50.958;6.258;2022-08-03T00:56:16;18.40;99.90
46898;DHT22;32646;50.958;6.258;2022-08-03T00:58:43;18.40;99.90
46898;DHT22;32646;50.958;6.258;2022-08-03T01:01:10;18.30;99.90
46898;DHT22;32646;50.958;6.258;2022-08-03T01:03:37;18.30;99.90
46898;DHT22;32646;50.958;6.258;2022-08-03T01:06:17;18.30;99.90
46898;DHT22;32646;50.958;6.258;2022-08-03T01:14:33;18.40;99.90
46898;DHT22;32646;50.958;6.258;2022-08-03T01:17:15;18.40;99.90
46898;DHT22;32646;50.958;6.258;2022-08-03T01:19:51;18.40;99.90
46898;DHT22;32646;50.958;6.258;2022-08-03T01:22:36;18.40;99.90
46898;DHT22;32646;50.958;6.258;2022-08-03T01:30:22;18.20;99.90
46898;DHT22;32646;50.958;6.258;2022-08-03T01:32:54;18.20;99.90
46898;DHT22;32646;50.958;6.258;2022-08-03T01:35:52;18.30;99.90
46898;DHT22;32646;50.958;6.258;2022-08-03T01:38:32;18.20;99.90
46898;DHT22;32646;50.958;6.258;2022-08-03T01:41:11;18.10;99.90
46898;DHT22;32646;50.958;6.258;2022-08-03T01:43:41;17.90;99.90
46898;DHT22;32646;50.958;6.258;2022-08-03T01:46:30;17.80;99.90
46898;DHT22;32646;50.958;6.258;2022-08-03T01:48:58;17.70;99.90
46898;DHT22;32646;50.958;6.258;2022-08-03T01:51:36;17.60;99.90
46898;DHT22;32646;50.958;6.258;2022-08-03T01:54:24;17.60;99.90
46898;DHT22;32646;50.958;6.258;2022-08-03T01:56:53;17.50;99.90
46898;DHT22;32646;50.958;6.258;2022-08-03T01:59:22;17.40;99.90
46898;DHT22;32646;50.958;6.258;2022-08-03T02:01:52;17.30;99.90
46898;DHT22;32646;50.958;6.258;2022-08-03T02:04:40;17.20;99.90
46898;DHT22;32646;50.958;6.258;2022-08-03T02:07:08;17.00;99.90
46898;DHT22;32646;50.958;6.258;2022-08-03T02:09:40;17.00;99.90
46898;DHT22;32646;50.958;6.258;2022-08-03T02:12:10;16.90;99.90
46898;DHT22;32646;50.958;6.258;2022-08-03T02:14:39;17.00;99.90
46898;DHT22;32646;50.958;6.258;2022-08-03T02:17:06;17.10;99.90
46898;DHT22;32646;50.958;6.258;2022-08-03T02:19:35;17.10;99.90
46898;DHT22;32646;50.958;6.258;2022-08-03T02:22:04;17.10;99.90
46898;DHT22;32646;50.958;6.258;2022-08-03T02:24:33;17.10;99.90
46898;DHT22;32646;50.958;6.258;2022-08-03T02:27:01;17.20;99.90
46898;DHT22;32646;50.958;6.258;2022-08-03T02:29:32;17.20;99.90
46898;DHT22;32646;50.958;6.258;2022-08-03T02:32:09;17.30;99.90
46898;DHT22;32646;50.958;6.258;2022-08-03T02:34:39;17.30;99.90
46898;DHT22;32646;50.958;6.258;2022-08-03T02:37:07;17.30;99.90
46898;DHT22;32646;50.958;6.258;2022-08-03T02:39:36;17.40;99.90
46898;DHT22;32646;50.958;6.258;2022-08-03T02:42:05;17.30;99.90
46898;DHT22;32646;50.958;6.258;2022-08-03T02:44:35;17.30;99.90
46898;DHT22;32646;50.958;6.258;2022-08-03T02:47:06;17.20;99.90
46898;DHT22;32646;50.958;6.258;2022-08-03T02:49:34;17.20;99.90
46898;DHT22;32646;50.958;6.258;2022-08-03T02:52:18;17.10;99.90
46898;DHT22;32646;50.958;6.258;2022-08-03T02:54:48;17.00;99.90
46898;DHT22;32646;50.958;6.258;2022-08-03T02:57:16;17.10;99.90
46898;DHT22;32646;50.958;6.258;2022-08-03T02:59:43;17.00;99.90
46898;DHT22;32646;50.958;6.258;2022-08-03T03:02:11;17.00;99.90
46898;DHT22;32646;50.958;6.258;2022-08-03T03:04:41;16.90;99.90
46898;DHT22;32646;50.958;6.258;2022-08-03T03:07:29;16.90;99.90
46898;DHT22;32646;50.958;6.258;2022-08-03T03:10:04;16.80;99.90
46898;DHT22;32646;50.958;6.258;2022-08-03T03:12:32;16.70;99.90
46898;DHT22;32646;50.958;6.258;2022-08-03T03:15:01;16.70;99.90
46898;DHT22;32646;50.958;6.258;2022-08-03T03:17:29;16.60;99.90
46898;DHT22;32646;50.958;6.258;2022-08-03T03:19:57;16.60;99.90
46898;DHT22;32646;50.958;6.258;2022-08-03T03:22:25;16.60;99.90
46898;DHT22;32646;50.958;6.258;2022-08-03T03:24:53;16.50;99.90
46898;DHT22;32646;50.958;6.258;2022-08-03T03:27:21;16.40;99.90
46898;DHT22;32646;50.958;6.258;2022-08-03T03:29:48;16.30;99.90
46898;DHT22;32646;50.958;6.258;2022-08-03T03:32:15;16.20;99.90
46898;DHT22;32646;50.958;6.258;2022-08-03T03:34:42;16.20;99.90
46898;DHT22;32646;50.958;6.258;2022-08-03T03:37:10;16.20;99.90
46898;DHT22;32646;50.958;6.258;2022-08-03T03:39:36;16.20;99.90
46898;DHT22;32646;50.958;6.258;2022-08-03T03:42:03;16.10;99.90
46898;DHT22;32646;50.958;6.258;2022-08-03T03:44:30;16.10;99.90
46898;DHT22;32646;50.958;6.258;2022-08-03T03:46:57;16.00;99.90
46898;DHT22;32646;50.958;6.258;2022-08-03T03:49:24;16.00;99.90
46898;DHT22;32646;50.958;6.258;2022-08-03T03:51:52;16.00;99.90
46898;DHT22;32646;50.958;6.258;2022-08-03T03:54:19;15.90;99.90
46898;DHT22;32646;50.958;6.258;2022-08-03T03:56:46;15.90;99.90
46898;DHT22;32646;50.958;6.258;2022-08-03T03:59:13;15.90;99.90
46898;DHT22;32646;50.958;6.258;2022-08-03T04:01:39;15.90;99.90
46898;DHT22;32646;50.958;6.258;2022-08-03T04:04:06;15.90;99.90
46898;DHT22;32646;50.958;6.258;2022-08-03T04:06:33;15.80;99.90
46898;DHT22;32646;50.958;6.258;2022-08-03T04:09:00;15.80;99.90
46898;DHT22;32646;50.958;6.258;2022-08-03T04:11:30;15.80;99.90
46898;DHT22;32646;50.958;6.258;2022-08-03T04:14:25;15.70;99.90
46898;DHT22;32646;50.958;6.258;2022-08-03T04:17:06;15.70;99.90
46898;DHT22;32646;50.958;6.258;2022-08-03T04:19:39;15.70;99.90
46898;DHT22;32646;50.958;6.258;2022-08-03T04:22:12;15.70;99.90
46898;DHT22;32646;50.958;6.258;2022-08-03T04:24:47;15.80;99.90
46898;DHT22;32646;50.958;6.258;2022-08-03T04:27:22;15.90;99.90
46898;DHT22;32646;50.958;6.258;2022-08-03T04:29:52;15.90;99.90
46898;DHT22;32646;50.958;6.258;2022-08-03T04:32:20;16.00;99.90
46898;DHT22;32646;50.958;6.258;2022-08-03T04:34:48;16.10;99.90
46898;DHT22;32646;50.958;6.258;2022-08-03T04:37:35;16.10;99.90
46898;DHT22;32646;50.958;6.258;2022-08-03T04:40:09;16.20;99.90
46898;DHT22;32646;50.958;6.258;2022-08-03T04:42:36;16.20;99.90
46898;DHT22;32646;50.958;6.258;2022-08-03T04:45:04;16.20;99.90
46898;DHT22;32646;50.958;6.258;2022-08-03T04:47:33;16.30;99.90
46898;DHT22;32646;50.958;6.258;2022-08-03T04:50:01;16.30;99.90
46898;DHT22;32646;50.958;6.258;2022-08-03T04:52:29;16.40;99.90
46898;DHT22;32646;50.958;6.258;2022-08-03T04:54:56;16.50;99.90
46898;DHT22;32646;50.958;6.258;2022-08-03T04:57:23;16.50;99.90
46898;DHT22;32646;50.958;6.258;2022-08-03T04:59:50;16.70;99.90
46898;DHT22;32646;50.958;6.258;2022-08-03T05:02:18;16.70;99.90
46898;DHT22;32646;50.958;6.258;2022-08-03T05:04:44;16.80;99.90
46898;DHT22;32646;50.958;6.258;2022-08-03T05:07:12;16.90;99.90
46898;DHT22;32646;50.958;6.258;2022-08-03T05:09:39;16.90;99.90
46898;DHT22;32646;50.958;6.258;2022-08-03T05:12:18;17.00;99.90
46898;DHT22;32646;50.958;6.258;2022-08-03T05:14:45;17.20;99.90
46898;DHT22;32646;50.958;6.258;2022-08-03T05:17:11;17.20;99.90
46898;DHT22;32646;50.958;6.258;2022-08-03T05:19:38;17.30;99.90
46898;DHT22;32646;50.958;6.258;2022-08-03T07:33:14;24.30;97.30
46898;DHT22;32646;50.958;6.258;2022-08-03T07:35:41;24.30;97.50
46898;DHT22;32646;50.958;6.258;2022-08-03T07:38:07;24.30;97.40
46898;DHT22;32646;50.958;6.258;2022-08-03T07:40:34;24.40;96.80
46898;DHT22;32646;50.958;6.258;2022-08-03T07:43:01;24.70;96.20
46898;DHT22;32646;50.958;6.258;2022-08-03T07:45:31;24.90;95.20
46898;DHT22;32646;50.958;6.258;2022-08-03T07:47:58;25.20;96.80
46898;DHT22;32646;50.958;6.258;2022-08-03T07:50:25;25.30;95.10
46898;DHT22;32646;50.958;6.258;2022-08-03T07:52:51;25.70;95.00
46898;DHT22;32646;50.958;6.258;2022-08-03T07:55:23;25.80;94.00
46898;DHT22;32646;50.958;6.258;2022-08-03T08:00:27;26.00;93.60
46898;DHT22;32646;50.958;6.258;2022-08-03T08:02:54;26.20;93.40
46898;DHT22;32646;50.958;6.258;2022-08-03T08:05:20;26.40;92.70
46898;DHT22;32646;50.958;6.258;2022-08-03T08:07:47;26.70;92.70
46898;DHT22;32646;50.958;6.258;2022-08-03T08:10:17;26.90;91.50
46898;DHT22;32646;50.958;6.258;2022-08-03T08:12:43;27.20;91.40
46898;DHT22;32646;50.958;6.258;2022-08-03T08:15:10;27.30;90.40
46898;DHT22;32646;50.958;6.258;2022-08-03T08:17:48;27.90;90.20
46898;DHT22;32646;50.958;6.258;2022-08-03T08:20:21;28.90;90.30
46898;DHT22;32646;50.958;6.258;2022-08-03T08:22:59;29.70;85.80
46898;DHT22;32646;50.958;6.258;2022-08-03T08:25:28;30.80;85.50
46898;DHT22;32646;50.958;6.258;2022-08-03T08:27:54;31.70;81.70
46898;DHT22;32646;50.958;6.258;2022-08-03T08:30:41;31.60;80.50
46898;DHT22;32646;50.958;6.258;2022-08-03T08:33:07;31.60;79.60
46898;DHT22;32646;50.958;6.258;2022-08-03T08:35:50;32.00;79.50
46898;DHT22;32646;50.958;6.258;2022-08-03T08:38:16;32.10;78.50
46898;DHT22;32646;50.958;6.258;2022-08-03T08:40:43;32.80;76.10
46898;DHT22;32646;50.958;6.258;2022-08-03T08:43:10;33.10;76.40
46898;DHT22;32646;50.958;6.258;2022-08-03T08:45:36;33.30;76.70
46898;DHT22;32646;50.958;6.258;2022-08-03T08:48:04;33.40;74.80
46898;DHT22;32646;50.958;6.258;2022-08-03T08:50:36;33.00;74.90
46898;DHT22;32646;50.958;6.258;2022-08-03T08:53:06;33.70;73.30
46898;DHT22;32646;50.958;6.258;2022-08-03T08:55:37;33.80;73.50
46898;DHT22;32646;50.958;6.258;2022-08-03T08:58:28;33.20;75.60
46898;DHT22;32646;50.958;6.258;2022-08-03T09:00:56;33.00;74.50
46898;DHT22;32646;50.958;6.258;2022-08-03T09:03:23;33.40;74.50
46898;DHT22;32646;50.958;6.258;2022-08-03T09:05:58;33.50;74.00
46898;DHT22;32646;50.958;6.258;2022-08-03T09:08:25;33.70;72.70
46898;DHT22;32646;50.958;6.258;2022-08-03T09:10:51;33.00;74.20
46898;DHT22;32646;50.958;6.258;2022-08-03T09:13:18;33.20;75.60
46898;DHT22;32646;50.958;6.258;2022-08-03T09:15:45;33.10;75.10
46898;DHT22;32646;50.958;6.258;2022-08-03T09:18:30;33.40;74.80
46898;DHT22;32646;50.958;6.258;2022-08-03T09:23:58;33.60;73.00
46898;DHT22;32646;50.958;6.258;2022-08-03T09:26:32;33.20;74.70
46898;DHT22;32646;50.958;6.258;2022-08-03T09:29:08;33.10;73.30
46898;DHT22;32646;50.958;6.258;2022-08-03T09:31:44;33.50;72.90
46898;DHT22;32646;50.958;6.258;2022-08-03T09:34:16;33.60;72.30
46898;DHT22;32646;50.958;6.258;2022-08-03T09:36:48;33.30;73.20
46898;DHT22;32646;50.958;6.258;2022-08-03T09:41:44;33.10;72.10
46898;DHT22;32646;50.958;6.258;2022-08-03T09:44:11;33.00;72.50
46898;DHT22;32646;50.958;6.258;2022-08-03T09:46:53;32.50;73.00
46898;DHT22;32646;50.958;6.258;2022-08-03T09:49:20;32.60;72.50
46898;DHT22;32646;50.958;6.258;2022-08-03T09:51:47;32.50;73.00
46898;DHT22;32646;50.958;6.258;2022-08-03T09:54:33;32.60;72.90
46898;DHT22;32646;50.958;6.258;2022-08-03T09:57:01;32.60;73.80
46898;DHT22;32646;50.958;6.258;2022-08-03T09:59:30;32.80;74.00
46898;DHT22;32646;50.958;6.258;2022-08-03T10:01:57;32.70;73.50
46898;DHT22;32646;50.958;6.258;2022-08-03T10:04:25;32.90;72.20
46898;DHT22;32646;50.958;6.258;2022-08-03T10:07:06;33.10;72.30
46898;DHT22;32646;50.958;6.258;2022-08-03T10:09:33;32.60;71.80
46898;DHT22;32646;50.958;6.258;2022-08-03T10:12:13;32.60;72.10
46898;DHT22;32646;50.958;6.258;2022-08-03T10:14:40;32.70;72.00
46898;DHT22;32646;50.958;6.258;2022-08-03T10:17:10;32.90;72.10
46898;DHT22;32646;50.958;6.258;2022-08-03T10:19:37;33.00;71.80
46898;DHT22;32646;50.958;6.258;2022-08-03T10:22:13;33.30;72.40
46898;DHT22;32646;50.958;6.258;2022-08-03T10:24:48;33.30;71.20
46898;DHT22;32646;50.958;6.258;2022-08-03T10:27:16;33.70;71.20
46898;DHT22;32646;50.958;6.258;2022-08-03T10:29:48;33.60;72.20
46898;DHT22;32646;50.958;6.258;2022-08-03T10:32:39;33.40;72.00
46898;DHT22;32646;50.958;6.258;2022-08-03T10:35:19;33.70;70.70
46898;DHT22;32646;50.958;6.258;2022-08-03T10:37:54;33.90;71.20
46898;DHT22;32646;50.958;6.258;2022-08-03T10:40:26;34.10;70.00
46898;DHT22;32646;50.958;6.258;2022-08-03T10:43:36;33.90;71.30
46898;DHT22;32646;50.958;6.258;2022-08-03T10:46:06;33.60;70.40
46898;DHT22;32646;50.958;6.258;2022-08-03T10:48:34;33.50;72.30
46898;DHT22;32646;50.958;6.258;2022-08-03T10:51:02;33.70;71.00
46898;DHT22;32646;50.958;6.258;2022-08-03T10:53:37;33.30;70.90
46898;DHT22;32646;50.958;6.258;2022-08-03T10:56:04;33.20;71.30
46898;DHT22;32646;50.958;6.258;2022-08-03T11:01:48;32.80;72.00
46898;DHT22;32646;50.958;6.258;2022-08-03T11:04:27;33.20;72.20
46898;DHT22;32646;50.958;6.258;2022-08-03T11:09:48;33.90;72.20
46898;DHT22;32646;50.958;6.258;2022-08-03T11:12:29;34.00;71.50
46898;DHT22;32646;50.958;6.258;2022-08-03T11:15:00;34.50;70.50
46898;DHT22;32646;50.958;6.258;2022-08-03T11:17:27;34.80;71.60
46898;DHT22;32646;50.958;6.258;2022-08-03T11:19:54;34.50;72.30
46898;DHT22;32646;50.958;6.258;2022-08-03T11:22:23;34.40;70.30
46898;DHT22;32646;50.958;6.258;2022-08-03T11:27:21;34.30;71.00
46898;DHT22;32646;50.958;6.258;2022-08-03T11:30:05;34.30;69.90
46898;DHT22;32646;50.958;6.258;2022-08-03T11:35:27;34.70;71.20
46898;DHT22;32646;50.958;6.258;2022-08-03T11:43:05;34.50;69.10
46898;DHT22;32646;50.958;6.258;2022-08-03T11:45:32;34.90;69.60
46898;DHT22;32646;50.958;6.258;2022-08-03T11:48:22;34.90;70.10
46898;DHT22;32646;50.958;6.258;2022-08-03T11:50:48;34.80;71.20
46898;DHT22;32646;50.958;6.258;2022-08-03T11:53:17;35.10;69.20
46898;DHT22;32646;50.958;6.258;2022-08-03T11:55:46;35.40;70.60
46898;DHT22;32646;50.958;6.258;2022-08-03T11:58:21;35.30;68.60
46898;DHT22;32646;50.958;6.258;2022-08-03T12:01:07;35.40;68.30
46898;DHT22;32646;50.958;6.258;2022-08-03T12:03:34;35.40;68.50
46898;DHT22;32646;50.958;6.258;2022-08-03T12:06:02;35.60;69.40
46898;DHT22;32646;50.958;6.258;2022-08-03T12:08:34;35.80;68.60
46898;DHT22;32646;50.958;6.258;2022-08-03T12:11:02;36.30;68.20
46898;DHT22;32646;50.958;6.258;2022-08-03T12:13:40;36.50;68.10
46898;DHT22;32646;50.958;6.258;2022-08-03T12:16:28;36.80;67.50
46898;DHT22;32646;50.958;6.258;2022-08-03T12:19:04;37.30;69.00
46898;DHT22;32646;50.958;6.258;2022-08-03T12:21:31;37.60;66.90
46898;DHT22;32646;50.958;6.258;2022-08-03T12:24:03;37.70;64.70
46898;DHT22;32646;50.958;6.258;2022-08-03T12:26:48;37.30;65.00
46898;DHT22;32646;50.958;6.258;2022-08-03T12:29:24;37.20;64.70
46898;DHT22;32646;50.958;6.258;2022-08-03T12:31:51;36.90;63.80
46898;DHT22;32646;50.958;6.258;2022-08-03T12:34:17;36.70;65.90
46898;DHT22;32646;50.958;6.258;2022-08-03T12:36:54;37.10;66.30
46898;DHT22;32646;50.958;6.258;2022-08-03T12:39:25;37.40;64.70
46898;DHT22;32646;50.958;6.258;2022-08-03T12:41:54;37.60;66.20
46898;DHT22;32646;50.958;6.258;2022-08-03T12:44:32;37.50;66.00
46898;DHT22;32646;50.958;6.258;2022-08-03T12:47:00;37.50;65.20
46898;DHT22;32646;50.958;6.258;2022-08-03T12:49:27;37.60;65.20
46898;DHT22;32646;50.958;6.258;2022-08-03T12:51:58;37.70;65.60
46898;DHT22;32646;50.958;6.258;2022-08-03T12:54:30;38.60;64.60
46898;DHT22;32646;50.958;6.258;2022-08-03T12:57:02;37.80;64.40
46898;DHT22;32646;50.958;6.258;2022-08-03T13:04:50;37.50;64.00
46898;DHT22;32646;50.958;6.258;2022-08-03T13:07:17;36.70;63.10
46898;DHT22;32646;50.958;6.258;2022-08-03T13:12:18;36.90;64.30
46898;DHT22;32646;50.958;6.258;2022-08-03T13:14:49;37.80;64.90
46898;DHT22;32646;50.958;6.258;2022-08-03T13:17:16;38.00;63.00
46898;DHT22;32646;50.958;6.258;2022-08-03T13:19:43;38.10;63.20
46898;DHT22;32646;50.958;6.258;2022-08-03T13:22:19;38.70;61.70
46898;DHT22;32646;50.958;6.258;2022-08-03T13:24:48;38.00;61.00
46898;DHT22;32646;50.958;6.258;2022-08-03T13:27:15;36.90;60.80
46898;DHT22;32646;50.958;6.258;2022-08-03T13:30:02;37.10;62.00
46898;DHT22;32646;50.958;6.258;2022-08-03T13:32:29;37.80;61.40
46898;DHT22;32646;50.958;6.258;2022-08-03T13:34:56;37.90;60.80
46898;DHT22;32646;50.958;6.258;2022-08-03T13:37:22;38.20;60.60
46898;DHT22;32646;50.958;6.258;2022-08-03T13:39:49;37.70;60.40
46898;DHT22;32646;50.958;6.258;2022-08-03T13:42:30;36.50;60.40
46898;DHT22;32646;50.958;6.258;2022-08-03T13:44:58;36.60;61.60
46898;DHT22;32646;50.958;6.258;2022-08-03T13:47:25;36.40;61.70
46898;DHT22;32646;50.958;6.258;2022-08-03T13:49:52;37.10;61.80
46898;DHT22;32646;50.958;6.258;2022-08-03T13:52:28;37.10;62.80
46898;DHT22;32646;50.958;6.258;2022-08-03T13:54:55;36.80;61.60
46898;DHT22;32646;50.958;6.258;2022-08-03T13:57:21;37.00;61.80
46898;DHT22;32646;50.958;6.258;2022-08-03T14:00:09;36.50;61.70
46898;DHT22;32646;50.958;6.258;2022-08-03T14:02:36;37.30;61.80
46898;DHT22;32646;50.958;6.258;2022-08-03T14:05:03;37.50;60.20
46898;DHT22;32646;50.958;6.258;2022-08-03T14:07:30;36.80;60.70
46898;DHT22;32646;50.958;6.258;2022-08-03T14:09:56;36.60;63.00
46898;DHT22;32646;50.958;6.258;2022-08-03T14:12:23;37.00;62.40
46898;DHT22;32646;50.958;6.258;2022-08-03T14:14:49;36.60;62.40
46898;DHT22;32646;50.958;6.258;2022-08-03T14:17:16;36.60;61.00
46898;DHT22;32646;50.958;6.258;2022-08-03T14:19:43;37.40;62.10
46898;DHT22;32646;50.958;6.258;2022-08-03T14:22:19;37.40;60.30
46898;DHT22;32646;50.958;6.258;2022-08-03T14:24:46;37.70;61.30
46898;DHT22;32646;50.958;6.258;2022-08-03T14:27:15;37.70;60.70
46898;DHT22;32646;50.958;6.258;2022-08-03T14:29:42;36.80;62.30
46898;DHT22;32646;50.958;6.258;2022-08-03T14:32:09;36.90;61.50
46898;DHT22;32646;50.958;6.258;2022-08-03T14:34:39;37.00;61.70
46898;DHT22;32646;50.958;6.258;2022-08-03T14:37:06;37.10;61.00
46898;DHT22;32646;50.958;6.258;2022-08-03T14:39:33;37.10;60.20
46898;DHT22;32646;50.958;6.258;2022-08-03T14:42:19;37.50;61.10
46898;DHT22;32646;50.958;6.258;2022-08-03T14:44:46;37.50;60.40
46898;DHT22;32646;50.958;6.258;2022-08-03T14:47:13;37.40;60.70
46898;DHT22;32646;50.958;6.258;2022-08-03T14:49:40;36.60;60.50
46898;DHT22;32646;50.958;6.258;2022-08-03T14:52:26;36.50;60.60
46898;DHT22;32646;50.958;6.258;2022-08-03T14:54:53;36.60;60.80
46898;DHT22;32646;50.958;6.258;2022-08-03T14:57:20;36.30;62.50
46898;DHT22;32646;50.958;6.258;2022-08-03T14:59:47;36.10;63.00
46898;DHT22;32646;50.958;6.258;2022-08-03T15:02:25;35.90;61.00
46898;DHT22;32646;50.958;6.258;2022-08-03T15:04:52;35.40;62.20
46898;DHT22;32646;50.958;6.258;2022-08-03T15:07:19;35.20;62.90
46898;DHT22;32646;50.958;6.258;2022-08-03T15:09:46;35.40;62.70
46898;DHT22;32646;50.958;6.258;2022-08-03T15:12:13;35.80;61.50
46898;DHT22;32646;50.958;6.258;2022-08-03T15:14:39;36.30;60.80
46898;DHT22;32646;50.958;6.258;2022-08-03T15:17:06;36.60;60.80
46898;DHT22;32646;50.958;6.258;2022-08-03T15:19:34;37.00;61.60
46898;DHT22;32646;50.958;6.258;2022-08-03T15:22:21;37.00;59.80
46898;DHT22;32646;50.958;6.258;2022-08-03T15:25:03;37.40;61.30
46898;DHT22;32646;50.958;6.258;2022-08-03T15:27:51;37.20;60.50
46898;DHT22;32646;50.958;6.258;2022-08-03T15:30:30;36.60;61.10
46898;DHT22;32646;50.958;6.258;2022-08-03T15:32:57;36.50;60.50
46898;DHT22;32646;50.958;6.258;2022-08-03T15:35:24;36.50;61.80
46898;DHT22;32646;50.958;6.258;2022-08-03T15:37:50;36.40;61.10
46898;DHT22;32646;50.958;6.258;2022-08-03T15:40:17;36.10;61.30
46898;DHT22;32646;50.958;6.258;2022-08-03T15:42:43;35.80;61.70
46898;DHT22;32646;50.958;6.258;2022-08-03T15:45:16;35.70;61.60
46898;DHT22;32646;50.958;6.258;2022-08-03T15:47:46;35.80;61.20
46898;DHT22;32646;50.958;6.258;2022-08-03T15:50:13;35.00;61.20
46898;DHT22;32646;50.958;6.258;2022-08-03T15:52:39;35.20;61.20
46898;DHT22;32646;50.958;6.258;2022-08-03T15:55:06;35.30;61.90
46898;DHT22;32646;50.958;6.258;2022-08-03T15:57:33;35.30;61.70
46898;DHT22;32646;50.958;6.258;2022-08-03T16:00:19;35.50;62.60
46898;DHT22;32646;50.958;6.258;2022-08-03T16:02:59;35.60;62.50
46898;DHT22;32646;50.958;6.258;2022-08-03T16:05:26;35.60;61.50
46898;DHT22;32646;50.958;6.258;2022-08-03T16:07:54;35.60;61.50
46898;DHT22;32646;50.958;6.258;2022-08-03T16:10:29;35.60;61.50
46898;DHT22;32646;50.958;6.258;2022-08-03T16:12:55;35.60;61.30
46898;DHT22;32646;50.958;6.258;2022-08-03T16:15:22;35.40;62.30
46898;DHT22;32646;50.958;6.258;2022-08-03T16:17:49;35.40;62.50
46898;DHT22;32646;50.958;6.258;2022-08-03T16:20:15;35.40;61.90
46898;DHT22;32646;50.958;6.258;2022-08-03T16:23:02;35.30;62.60
46898;DHT22;32646;50.958;6.258;2022-08-03T16:25:38;35.00;62.40
46898;DHT22;32646;50.958;6.258;2022-08-03T16:28:05;35.10;62.90
46898;DHT22;32646;50.958;6.258;2022-08-03T16:30:41;35.10;62.90
46898;DHT22;32646;50.958;6.258;2022-08-03T16:33:08;34.70;62.90
46898;DHT22;32646;50.958;6.258;2022-08-03T16:35:34;34.30;63.20
46898;DHT22;32646;50.958;6.258;2022-08-03T16:38:02;33.90;63.20
46898;DHT22;32646;50.958;6.258;2022-08-03T16:40:35;33.70;64.60
46898;DHT22;32646;50.958;6.258;2022-08-03T16:43:12;33.60;65.00
46898;DHT22;32646;50.958;6.258;2022-08-03T16:45:46;33.60;64.10
46898;DHT22;32646;50.958;6.258;2022-08-03T16:48:14;33.50;64.20
46898;DHT22;32646;50.958;6.258;2022-08-03T16:50:42;33.70;66.00
46898;DHT22;32646;50.958;6.258;2022-08-03T16:53:10;33.70;64.40
46898;DHT22;32646;50.958;6.258;2022-08-03T16:55:59;33.70;64.80
46898;DHT22;32646;50.958;6.258;2022-08-03T16:58:28;33.70;64.30
46898;DHT22;32646;50.958;6.258;2022-08-03T17:01:09;33.50;65.40
46898;DHT22;32646;50.958;6.258;2022-08-03T17:03:56;33.50;66.20
46898;DHT22;32646;50.958;6.258;2022-08-03T17:06:34;33.50;65.60
46898;DHT22;32646;50.958;6.258;2022-08-03T17:09:07;33.50;65.70
46898;DHT22;32646;50.958;6.258;2022-08-03T17:11:40;33.20;65.30
46898;DHT22;32646;50.958;6.258;2022-08-03T17:14:14;33.10;65.60
46898;DHT22;32646;50.958;6.258;2022-08-03T17:16:45;32.90;65.80
46898;DHT22;32646;50.958;6.258;2022-08-03T17:19:20;32.80;65.80
46898;DHT22;32646;50.958;6.258;2022-08-03T17:21:56;32.60;66.10
46898;DHT22;32646;50.958;6.258;2022-08-03T17:24:31;32.50;66.30
46898;DHT22;32646;50.958;6.258;2022-08-03T17:27:02;32.50;66.60
46898;DHT22;32646;50.958;6.258;2022-08-03T17:29:38;32.50;66.90
46898;DHT22;32646;50.958;6.258;2022-08-03T17:32:11;32.30;67.20
46898;DHT22;32646;50.958;6.258;2022-08-03T17:34:45;32.20;66.90
46898;DHT22;32646;50.958;6.258;2022-08-03T17:37:12;32.10;67.40
46898;DHT22;32646;50.958;6.258;2022-08-03T17:39:59;32.00;67.90
46898;DHT22;32646;50.958;6.258;2022-08-03T17:42:29;31.80;67.30
46898;DHT22;32646;50.958;6.258;2022-08-03T17:45:00;31.70;68.20
46898;DHT22;32646;50.958;6.258;2022-08-03T17:47:32;31.70;68.20
46898;DHT22;32646;50.958;6.258;2022-08-03T17:50:11;31.70;67.80
46898;DHT22;32646;50.958;6.258;2022-08-03T17:53:02;31.50;67.50
46898;DHT22;32646;50.958;6.258;2022-08-03T17:55:38;31.40;68.90
46898;DHT22;32646;50.958;6.258;2022-08-03T18:04:32;31.20;69.00
46898;DHT22;32646;50.958;6.258;2022-08-03T18:06:58;31.10;69.30
46898;DHT22;32646;50.958;6.258;2022-08-03T18:09:39;31.10;69.40
46898;DHT22;32646;50.958;6.258;2022-08-03T18:12:33;31.10;69.10
46898;DHT22;32646;50.958;6.258;2022-08-03T18:15:00;31.10;69.50
46898;DHT22;32646;50.958;6.258;2022-08-03T18:17:35;31.00;70.30
46898;DHT22;32646;50.958;6.258;2022-08-03T18:20:23;31.00;70.60
46898;DHT22;32646;50.958;6.258;2022-08-03T18:23:04;30.90;70.70
46898;DHT22;32646;50.958;6.258;2022-08-03T18:25:32;30.80;72.30
46898;DHT22;32646;50.958;6.258;2022-08-03T18:28:18;30.70;71.00
46898;DHT22;32646;50.958;6.258;2022-08-03T18:30:49;30.60;71.40
46898;DHT22;32646;50.958;6.258;2022-08-03T18:33:21;30.50;71.60
46898;DHT22;32646;50.958;6.258;2022-08-03T18:36:09;30.50;71.60
46898;DHT22;32646;50.958;6.258;2022-08-03T18:38:46;30.40;71.70
46898;DHT22;32646;50.958;6.258;2022-08-03T18:41:20;30.30;72.60
46898;DHT22;32646;50.958;6.258;2022-08-03T18:44:00;30.10;72.90
46898;DHT22;32646;50.958;6.258;2022-08-03T18:52:07;29.60;74.80
46898;DHT22;32646;50.958;6.258;2022-08-03T18:55:11;29.40;75.40
46898;DHT22;32646;50.958;6.258;2022-08-03T19:00:32;29.10;75.90
46898;DHT22;32646;50.958;6.258;2022-08-03T19:03:23;29.00;76.80
46898;DHT22;32646;50.958;6.258;2022-08-03T19:05:57;28.80;77.20
46898;DHT22;32646;50.958;6.258;2022-08-03T19:11:10;28.50;78.40